createdAt,value
2023-08-12T00:00:21.266Z,3.42
2023-08-12T00:00:44.144Z,3.92
2023-08-12T00:01:07.040Z,3.75
2023-08-12T00:01:29.964Z,3.80
2023-08-12T00:01:52.881Z,3.70
2023-08-12T00:02:15.661Z,3.50
2023-08-12T00:02:38.786Z,3.47
2023-08-12T00:03:01.637Z,3.35
2023-08-12T00:03:24.476Z,3.58
2023-08-12T00:03:47.270Z,3.60
2023-08-12T00:04:10.212Z,3.40
2023-08-12T00:04:33.229Z,3.25
2023-08-12T00:04:56.130Z,3.20
2023-08-12T00:05:19.316Z,3.10
2023-08-12T00:05:44.446Z,3.10
2023-08-12T00:06:07.335Z,3.60
2023-08-12T00:06:30.166Z,3.33
2023-08-12T00:06:53.215Z,3.38
2023-08-12T00:07:16.076Z,3.40
2023-08-12T00:07:38.903Z,3.42
2023-08-12T00:08:01.777Z,3.33
2023-08-12T00:08:24.548Z,3.25
2023-08-12T00:08:47.302Z,3.40
2023-08-12T00:09:11.611Z,3.45
2023-08-12T00:09:34.487Z,3.75
2023-08-12T00:09:57.421Z,3.55
2023-08-12T00:10:20.604Z,3.33
2023-08-12T00:10:45.974Z,3.80
2023-08-12T00:11:08.719Z,3.50
2023-08-12T00:11:33.077Z,3.67
2023-08-12T00:11:55.837Z,3.65
2023-08-12T00:12:21.281Z,3.60
2023-08-12T00:12:44.350Z,3.78
2023-08-12T00:13:07.101Z,3.30
2023-08-12T00:13:32.300Z,4.00
2023-08-12T00:13:55.121Z,3.67
2023-08-12T00:14:17.982Z,3.65
2023-08-12T00:14:40.826Z,3.67
2023-08-12T00:15:04.075Z,3.92
2023-08-12T00:15:27.046Z,4.28
2023-08-12T00:15:50.033Z,3.45
2023-08-12T00:16:12.883Z,3.65
2023-08-12T00:16:35.837Z,4.00
2023-08-12T00:17:01.962Z,3.63
2023-08-12T00:17:24.841Z,3.50
2023-08-12T00:17:47.781Z,3.90
2023-08-12T00:18:10.710Z,4.00
2023-08-12T00:18:38.348Z,3.65
2023-08-12T00:19:02.066Z,3.40
2023-08-12T00:19:24.931Z,3.63
2023-08-12T00:19:47.986Z,3.80
2023-08-12T00:20:14.290Z,3.50
2023-08-12T00:20:39.278Z,3.38
2023-08-12T00:21:02.082Z,3.47
2023-08-12T00:21:24.905Z,3.50
2023-08-12T00:21:47.805Z,3.50
2023-08-12T00:22:14.299Z,3.22
2023-08-12T00:22:37.227Z,3.47
2023-08-12T00:23:00.757Z,3.58
2023-08-12T00:23:23.616Z,3.40
2023-08-12T00:23:49.080Z,3.47
2023-08-12T00:24:11.923Z,3.67
2023-08-12T00:24:34.722Z,3.58
2023-08-12T00:24:57.427Z,3.70
2023-08-12T00:25:20.547Z,3.67
2023-08-12T00:25:43.354Z,3.60
2023-08-12T00:26:06.373Z,3.42
2023-08-12T00:26:29.314Z,3.53
2023-08-12T00:26:53.673Z,3.50
2023-08-12T00:27:16.549Z,3.50
2023-08-12T00:27:39.456Z,3.42
2023-08-12T00:28:04.445Z,3.67
2023-08-12T00:28:27.192Z,3.50
2023-08-12T00:28:50.841Z,3.50
2023-08-12T00:29:13.731Z,3.38
2023-08-12T00:29:36.570Z,3.40
2023-08-12T00:29:59.686Z,3.42
2023-08-12T00:30:22.452Z,3.78
2023-08-12T00:30:45.290Z,3.22
2023-08-12T00:31:08.519Z,3.20
2023-08-12T00:31:31.370Z,3.33
2023-08-12T00:31:54.208Z,3.53
2023-08-12T00:32:16.970Z,3.38
2023-08-12T00:32:39.917Z,3.40
2023-08-12T00:33:03.409Z,3.40
2023-08-12T00:33:26.322Z,3.60
2023-08-12T00:33:49.057Z,3.83
2023-08-12T00:34:11.855Z,3.42
2023-08-12T00:34:34.790Z,3.35
2023-08-12T00:34:58.632Z,3.40
2023-08-12T00:35:21.487Z,3.60
2023-08-12T00:35:44.370Z,3.45
2023-08-12T00:36:07.654Z,3.50
2023-08-12T00:36:30.454Z,3.30
2023-08-12T00:36:53.322Z,3.40
2023-08-12T00:37:16.150Z,3.30
2023-08-12T00:37:39.204Z,3.40
2023-08-12T00:38:02.058Z,3.80
2023-08-12T00:38:24.967Z,3.33
2023-08-12T00:38:47.665Z,3.40
2023-08-12T00:39:10.618Z,3.58
2023-08-12T00:39:33.806Z,3.70
2023-08-12T00:39:56.690Z,3.58
2023-08-12T00:40:19.638Z,3.55
2023-08-12T00:40:42.474Z,3.50
2023-08-12T00:41:05.273Z,3.70
2023-08-12T00:41:28.025Z,3.42
2023-08-12T00:41:52.361Z,3.45
2023-08-12T00:42:15.264Z,3.55
2023-08-12T00:42:38.115Z,3.63
2023-08-12T00:43:01.009Z,3.38
2023-08-12T00:43:23.731Z,3.47
2023-08-12T00:43:46.535Z,3.55
2023-08-12T00:44:09.396Z,3.58
2023-08-12T00:44:34.802Z,3.85
2023-08-12T00:44:58.324Z,3.55
2023-08-12T00:45:21.159Z,3.60
2023-08-12T00:45:43.971Z,3.58
2023-08-12T00:46:06.738Z,3.30
2023-08-12T00:46:29.546Z,3.63
2023-08-12T00:46:52.513Z,3.63
2023-08-12T00:47:15.492Z,3.78
2023-08-12T00:47:38.389Z,3.50
2023-08-12T00:48:01.274Z,3.60
2023-08-12T00:48:24.593Z,3.78
2023-08-12T00:48:47.436Z,3.50
2023-08-12T00:49:10.329Z,3.60
2023-08-12T00:49:33.162Z,3.80
2023-08-12T00:49:58.398Z,3.72
2023-08-12T00:50:21.168Z,3.60
2023-08-12T00:50:44.091Z,3.58
2023-08-12T00:51:07.106Z,3.60
2023-08-12T00:51:29.900Z,3.53
2023-08-12T00:51:52.845Z,3.70
2023-08-12T00:52:15.723Z,3.55
2023-08-12T00:52:41.019Z,3.30
2023-08-12T00:53:04.018Z,3.45
2023-08-12T00:53:27.071Z,3.50
2023-08-12T00:53:49.970Z,3.60
2023-08-12T00:54:15.105Z,3.50
2023-08-12T00:54:37.956Z,3.10
2023-08-12T00:55:00.723Z,3.20
2023-08-12T00:55:23.482Z,3.35
2023-08-12T00:55:46.304Z,3.70
2023-08-12T00:56:09.202Z,3.50
2023-08-12T00:56:32.173Z,3.50
2023-08-12T00:56:56.479Z,3.38
2023-08-12T00:57:19.335Z,3.40
2023-08-12T00:57:42.046Z,3.40
2023-08-12T00:58:05.300Z,3.40
2023-08-12T00:58:28.093Z,3.50
2023-08-12T00:58:50.897Z,3.60
2023-08-12T00:59:13.715Z,3.70
2023-08-12T00:59:38.213Z,3.60
2023-08-12T01:00:00.966Z,3.40
2023-08-12T01:00:24.619Z,3.60
2023-08-12T01:00:47.451Z,3.58
2023-08-12T01:01:13.532Z,3.85
2023-08-12T01:01:36.853Z,3.65
2023-08-12T01:01:59.663Z,3.53
2023-08-12T01:02:23.535Z,3.25
2023-08-12T01:02:49.561Z,3.53
2023-08-12T01:03:13.329Z,3.88
2023-08-12T01:03:36.590Z,4.00
2023-08-12T01:03:59.622Z,3.55
2023-08-12T01:04:22.518Z,3.35
2023-08-12T01:04:45.371Z,3.60
2023-08-12T01:05:08.411Z,3.60
2023-08-12T01:05:31.670Z,3.60
2023-08-12T01:05:54.481Z,3.70
2023-08-12T01:06:17.215Z,3.67
2023-08-12T01:06:39.996Z,3.60
2023-08-12T01:07:02.809Z,3.60
2023-08-12T01:07:25.676Z,3.70
2023-08-12T01:07:51.002Z,3.70
2023-08-12T01:08:13.924Z,3.63
2023-08-12T01:08:36.686Z,3.40
2023-08-12T01:08:59.402Z,3.40
2023-08-12T01:09:22.265Z,3.60
2023-08-12T01:09:45.052Z,3.38
2023-08-12T01:10:11.130Z,3.55
2023-08-12T01:10:36.501Z,3.40
2023-08-12T01:11:02.870Z,3.42
2023-08-12T01:11:29.566Z,3.67
2023-08-12T01:11:56.669Z,3.60
2023-08-12T01:12:22.405Z,3.70
2023-08-12T01:12:48.884Z,3.60
2023-08-12T01:13:18.875Z,3.30
2023-08-12T01:13:50.047Z,3.60
2023-08-12T01:14:19.449Z,3.63
2023-08-12T01:14:46.339Z,3.38
2023-08-12T01:15:11.320Z,3.30
2023-08-12T01:15:34.137Z,3.70
2023-08-12T01:15:57.863Z,4.10
2023-08-12T01:16:20.753Z,3.70
2023-08-12T01:16:45.538Z,3.30
2023-08-12T01:17:09.572Z,3.95
2023-08-12T01:17:32.908Z,3.38
2023-08-12T01:17:56.527Z,3.38
2023-08-12T01:18:19.423Z,3.58
2023-08-12T01:18:42.258Z,3.90
2023-08-12T01:19:11.644Z,3.60
2023-08-12T01:19:36.659Z,3.55
2023-08-12T01:19:59.426Z,3.20
2023-08-12T01:20:26.384Z,3.55
2023-08-12T01:20:50.366Z,3.38
2023-08-12T01:21:16.619Z,3.40
2023-08-12T01:21:42.272Z,3.67
2023-08-12T01:22:06.175Z,3.45
2023-08-12T01:22:29.264Z,3.53
2023-08-12T01:23:00.329Z,3.80
2023-08-12T01:23:24.933Z,3.67
2023-08-12T01:23:47.798Z,3.80
2023-08-12T01:24:10.662Z,3.50
2023-08-12T01:24:37.010Z,3.50
2023-08-12T01:24:59.763Z,3.70
2023-08-12T01:25:22.628Z,3.70
2023-08-12T01:25:45.877Z,3.97
2023-08-12T01:26:08.695Z,3.70
2023-08-12T01:26:31.533Z,3.42
2023-08-12T01:26:54.413Z,3.10
2023-08-12T01:27:17.740Z,3.60
2023-08-12T01:27:40.516Z,3.70
2023-08-12T01:28:03.584Z,3.65
2023-08-12T01:28:26.411Z,3.63
2023-08-12T01:28:49.202Z,3.83
2023-08-12T01:29:15.462Z,3.80
2023-08-12T01:29:39.291Z,3.42
2023-08-12T01:30:02.086Z,3.35
2023-08-12T01:30:24.964Z,3.60
2023-08-12T01:30:51.052Z,3.58
2023-08-12T01:31:17.818Z,3.60
2023-08-12T01:31:43.190Z,3.67
2023-08-12T01:32:10.885Z,3.40
2023-08-12T01:32:38.452Z,3.50
2023-08-12T01:33:05.676Z,3.78
2023-08-12T01:33:32.094Z,3.47
2023-08-12T01:33:58.053Z,3.17
2023-08-12T01:34:22.802Z,3.63
2023-08-12T01:34:48.104Z,3.55
2023-08-12T01:35:14.816Z,3.80
2023-08-12T01:35:39.989Z,3.72
2023-08-12T01:36:07.131Z,3.17
2023-08-12T01:36:30.500Z,3.42
2023-08-12T01:36:55.994Z,3.78
2023-08-12T01:37:22.718Z,3.70
2023-08-12T01:37:45.562Z,3.30
2023-08-12T01:38:09.426Z,3.38
2023-08-12T01:38:33.576Z,3.40
2023-08-12T01:38:58.935Z,3.55
2023-08-12T01:39:21.721Z,3.30
2023-08-12T01:39:44.955Z,3.40
2023-08-12T01:40:10.540Z,3.60
2023-08-12T01:40:33.363Z,3.50
2023-08-12T01:40:57.150Z,3.53
2023-08-12T01:41:20.633Z,3.50
2023-08-12T01:41:46.521Z,3.45
2023-08-12T01:42:09.363Z,3.35
2023-08-12T01:42:32.457Z,3.45
2023-08-12T01:42:55.258Z,3.63
2023-08-12T01:43:19.151Z,3.38
2023-08-12T01:43:41.987Z,3.13
2023-08-12T01:44:05.266Z,3.10
2023-08-12T01:44:28.100Z,3.35
2023-08-12T01:44:51.020Z,3.30
2023-08-12T01:45:16.239Z,3.40
2023-08-12T01:45:40.063Z,3.55
2023-08-12T01:46:02.886Z,3.60
2023-08-12T01:46:25.813Z,3.53
2023-08-12T01:46:48.612Z,3.50
2023-08-12T01:47:13.969Z,3.58
2023-08-12T01:47:37.277Z,3.58
2023-08-12T01:48:00.106Z,3.50
2023-08-12T01:48:24.416Z,3.40
2023-08-12T01:48:47.335Z,3.55
2023-08-12T01:49:10.320Z,3.55
2023-08-12T01:49:32.954Z,3.38
2023-08-12T01:49:55.792Z,3.25
2023-08-12T01:50:18.739Z,3.50
2023-08-12T01:50:47.894Z,3.50
2023-08-12T01:51:10.778Z,3.55
2023-08-12T01:51:33.548Z,3.45
2023-08-12T01:51:58.967Z,3.70
2023-08-12T01:52:21.767Z,3.50
2023-08-12T01:52:47.655Z,3.58
2023-08-12T01:53:10.465Z,3.47
2023-08-12T01:53:34.694Z,3.20
2023-08-12T01:53:57.438Z,3.10
2023-08-12T01:54:20.417Z,3.20
2023-08-12T01:54:43.247Z,3.47
2023-08-12T01:55:06.187Z,3.40
2023-08-12T01:55:28.945Z,3.38
2023-08-12T01:55:52.940Z,3.20
2023-08-12T01:56:15.890Z,3.38
2023-08-12T01:56:41.832Z,3.45
2023-08-12T01:57:06.760Z,3.58
2023-08-12T01:57:29.970Z,3.30
2023-08-12T01:57:52.857Z,3.35
2023-08-12T01:58:15.662Z,3.60
2023-08-12T01:58:38.574Z,3.67
2023-08-12T01:59:01.409Z,3.50
2023-08-12T01:59:26.670Z,3.70
2023-08-12T01:59:49.571Z,3.80
2023-08-12T02:00:13.065Z,3.40
2023-08-12T02:00:35.867Z,3.25
2023-08-12T02:00:58.653Z,3.33
2023-08-12T02:01:21.555Z,3.55
2023-08-12T02:01:45.435Z,3.53
2023-08-12T02:02:08.222Z,3.20
2023-08-12T02:02:31.095Z,3.20
2023-08-12T02:02:54.296Z,3.40
2023-08-12T02:03:17.292Z,3.45
2023-08-12T02:03:40.374Z,3.30
2023-08-12T02:04:03.545Z,3.50
2023-08-12T02:04:27.021Z,3.70
2023-08-12T02:04:49.919Z,3.25
2023-08-12T02:05:12.827Z,3.47
2023-08-12T02:05:35.624Z,3.40
2023-08-12T02:05:58.457Z,3.55
2023-08-12T02:06:21.341Z,3.30
2023-08-12T02:06:44.133Z,3.33
2023-08-12T02:07:06.974Z,3.40
2023-08-12T02:07:29.922Z,3.42
2023-08-12T02:07:52.759Z,3.40
2023-08-12T02:08:15.735Z,3.10
2023-08-12T02:08:40.237Z,3.22
2023-08-12T02:09:03.188Z,3.33
2023-08-12T02:09:29.150Z,3.35
2023-08-12T02:09:51.986Z,3.13
2023-08-12T02:10:16.100Z,3.17
2023-08-12T02:10:38.961Z,3.30
2023-08-12T02:11:01.823Z,3.20
2023-08-12T02:11:24.640Z,3.20
2023-08-12T02:11:47.422Z,3.55
2023-08-12T02:12:10.224Z,3.50
2023-08-12T02:12:33.021Z,3.42
2023-08-12T02:12:56.176Z,3.28
2023-08-12T02:13:19.716Z,3.40
2023-08-12T02:13:42.572Z,3.25
2023-08-12T02:14:07.951Z,3.50
2023-08-12T02:14:30.810Z,3.20
2023-08-12T02:14:55.850Z,3.25
2023-08-12T02:15:18.786Z,3.28
2023-08-12T02:15:41.651Z,3.75
2023-08-12T02:16:04.942Z,3.65
2023-08-12T02:16:27.779Z,3.45
2023-08-12T02:16:50.707Z,3.67
2023-08-12T02:17:13.767Z,3.75
2023-08-12T02:17:37.048Z,3.47
2023-08-12T02:18:00.312Z,3.42
2023-08-12T02:18:23.257Z,3.78
2023-08-12T02:18:46.152Z,3.65
2023-08-12T02:19:09.354Z,3.63
2023-08-12T02:19:32.116Z,3.60
2023-08-12T02:19:54.912Z,3.75
2023-08-12T02:20:19.856Z,3.50
2023-08-12T02:20:42.694Z,3.50
2023-08-12T02:21:05.498Z,3.60
2023-08-12T02:21:28.306Z,3.78
2023-08-12T02:21:51.223Z,3.55
2023-08-12T02:22:14.114Z,3.83
2023-08-12T02:22:37.033Z,3.75
2023-08-12T02:23:00.085Z,3.60
2023-08-12T02:23:22.823Z,3.90
2023-08-12T02:23:47.147Z,3.90
2023-08-12T02:24:10.082Z,3.58
2023-08-12T02:24:32.961Z,3.67
2023-08-12T02:24:57.960Z,3.90
2023-08-12T02:25:20.883Z,3.80
2023-08-12T02:25:43.706Z,3.78
2023-08-12T02:26:08.823Z,3.65
2023-08-12T02:26:31.928Z,4.00
2023-08-12T02:26:54.978Z,3.95
2023-08-12T02:27:17.911Z,3.75
2023-08-12T02:27:40.662Z,3.83
2023-08-12T02:28:03.605Z,3.80
2023-08-12T02:28:26.368Z,3.80
2023-08-12T02:28:49.197Z,3.70
2023-08-12T02:29:12.332Z,4.00
2023-08-12T02:29:35.256Z,3.88
2023-08-12T02:29:58.105Z,3.72
2023-08-12T02:30:21.110Z,3.92
2023-08-12T02:30:44.730Z,3.72
2023-08-12T02:31:07.552Z,3.75
2023-08-12T02:31:30.424Z,3.88
2023-08-12T02:31:53.596Z,3.78
2023-08-12T02:32:16.445Z,3.63
2023-08-12T02:32:39.263Z,3.95
2023-08-12T02:33:02.350Z,4.30
2023-08-12T02:33:25.267Z,4.10
2023-08-12T02:33:48.072Z,3.78
2023-08-12T02:34:11.278Z,3.90
2023-08-12T02:34:34.123Z,4.03
2023-08-12T02:34:56.909Z,3.95
2023-08-12T02:35:19.742Z,4.10
2023-08-12T02:35:42.597Z,3.97
2023-08-12T02:36:06.091Z,4.00
2023-08-12T02:36:28.783Z,3.90
2023-08-12T02:36:51.684Z,3.70
2023-08-12T02:37:14.669Z,3.97
2023-08-12T02:37:37.656Z,4.30
2023-08-12T02:38:00.486Z,4.30
2023-08-12T02:38:23.297Z,4.25
2023-08-12T02:38:47.576Z,3.95
2023-08-12T02:39:10.391Z,4.20
2023-08-12T02:39:33.183Z,4.40
2023-08-12T02:39:56.047Z,4.43
2023-08-12T02:40:18.901Z,4.10
2023-08-12T02:40:41.697Z,3.88
2023-08-12T02:41:05.503Z,3.95
2023-08-12T02:41:28.323Z,3.90
2023-08-12T02:41:51.103Z,3.88
2023-08-12T02:42:13.823Z,3.90
2023-08-12T02:42:36.627Z,3.80
2023-08-12T02:42:59.438Z,3.85
2023-08-12T02:43:22.156Z,3.75
2023-08-12T02:43:44.907Z,3.83
2023-08-12T02:44:08.061Z,4.00
2023-08-12T02:44:30.933Z,4.22
2023-08-12T02:44:53.738Z,4.07
2023-08-12T02:45:16.766Z,3.88
2023-08-12T02:45:39.743Z,4.03
2023-08-12T02:46:02.996Z,4.32
2023-08-12T02:46:27.093Z,4.15
2023-08-12T02:46:52.507Z,4.20
2023-08-12T02:47:15.466Z,4.03
2023-08-12T02:47:38.487Z,4.10
2023-08-12T02:48:01.307Z,4.07
2023-08-12T02:48:24.195Z,4.20
2023-08-12T02:48:48.926Z,4.30
2023-08-12T02:49:11.917Z,3.88
2023-08-12T02:49:34.913Z,4.05
2023-08-12T02:49:57.700Z,4.18
2023-08-12T02:50:20.431Z,4.30
2023-08-12T02:50:45.816Z,4.25
2023-08-12T02:51:08.688Z,4.00
2023-08-12T02:51:31.518Z,4.28
2023-08-12T02:51:54.327Z,3.75
2023-08-12T02:52:17.148Z,4.15
2023-08-12T02:52:40.016Z,4.35
2023-08-12T02:53:02.919Z,4.30
2023-08-12T02:53:25.694Z,3.90
2023-08-12T02:53:49.947Z,4.18
2023-08-12T02:54:12.798Z,4.72
2023-08-12T02:54:35.557Z,4.22
2023-08-12T02:54:59.112Z,3.90
2023-08-12T02:55:21.869Z,4.00
2023-08-12T02:55:45.918Z,3.90
2023-08-12T02:56:08.714Z,4.05
2023-08-12T02:56:31.588Z,4.00
2023-08-12T02:56:54.545Z,3.83
2023-08-12T02:57:17.331Z,4.03
2023-08-12T02:57:40.077Z,4.22
2023-08-12T02:58:03.109Z,4.30
2023-08-12T02:58:27.212Z,3.90
2023-08-12T02:58:50.502Z,3.80
2023-08-12T02:59:13.377Z,4.30
2023-08-12T02:59:38.487Z,4.43
2023-08-12T03:00:01.249Z,4.10
2023-08-12T03:00:24.086Z,4.10
2023-08-12T03:00:46.938Z,4.63
2023-08-12T03:01:09.794Z,4.72
2023-08-12T03:01:32.710Z,4.15
2023-08-12T03:01:55.693Z,4.15
2023-08-12T03:02:18.503Z,3.78
2023-08-12T03:02:43.917Z,4.10
2023-08-12T03:03:06.820Z,4.57
2023-08-12T03:03:29.948Z,4.18
2023-08-12T03:03:52.868Z,4.03
2023-08-12T03:04:15.662Z,4.00
2023-08-12T03:04:38.468Z,4.07
2023-08-12T03:05:01.240Z,4.25
2023-08-12T03:05:24.395Z,3.83
2023-08-12T03:05:48.073Z,4.00
2023-08-12T03:06:11.315Z,4.20
2023-08-12T03:06:34.299Z,4.20
2023-08-12T03:06:57.145Z,4.00
2023-08-12T03:07:20.052Z,4.22
2023-08-12T03:07:46.084Z,4.10
2023-08-12T03:08:08.960Z,4.10
2023-08-12T03:08:31.773Z,3.88
2023-08-12T03:08:56.005Z,4.03
2023-08-12T03:09:19.921Z,4.03
2023-08-12T03:09:42.881Z,4.07
2023-08-12T03:10:07.228Z,3.92
2023-08-12T03:10:30.101Z,3.95
2023-08-12T03:10:59.069Z,3.90
2023-08-12T03:11:21.900Z,3.83
2023-08-12T03:11:44.577Z,4.00
2023-08-12T03:12:08.523Z,3.90
2023-08-12T03:12:31.387Z,4.05
2023-08-12T03:12:54.988Z,4.00
2023-08-12T03:13:17.722Z,4.22
2023-08-12T03:13:40.531Z,4.22
2023-08-12T03:14:03.417Z,3.80
2023-08-12T03:14:26.560Z,3.90
2023-08-12T03:14:49.378Z,4.00
2023-08-12T03:15:12.228Z,4.13
2023-08-12T03:15:35.056Z,4.22
2023-08-12T03:15:58.093Z,3.80
2023-08-12T03:16:21.144Z,4.00
2023-08-12T03:16:44.006Z,4.20
2023-08-12T03:17:06.811Z,4.35
2023-08-12T03:17:29.607Z,4.25
2023-08-12T03:17:52.504Z,4.45
2023-08-12T03:18:15.696Z,4.30
2023-08-12T03:18:40.906Z,4.20
2023-08-12T03:19:03.713Z,4.15
2023-08-12T03:19:26.648Z,4.10
2023-08-12T03:19:50.667Z,3.80
2023-08-12T03:20:13.714Z,4.13
2023-08-12T03:20:36.469Z,4.28
2023-08-12T03:21:00.389Z,4.55
2023-08-12T03:21:23.265Z,4.28
2023-08-12T03:21:46.114Z,4.18
2023-08-12T03:22:08.874Z,4.15
2023-08-12T03:22:31.664Z,4.20
2023-08-12T03:22:56.989Z,4.00
2023-08-12T03:23:19.847Z,4.10
2023-08-12T03:23:42.642Z,4.60
2023-08-12T03:24:08.386Z,3.85
2023-08-12T03:24:31.274Z,3.65
2023-08-12T03:24:54.694Z,4.00
2023-08-12T03:25:18.145Z,4.20
2023-08-12T03:25:40.988Z,4.10
2023-08-12T03:26:03.890Z,4.00
2023-08-12T03:26:27.470Z,3.90
2023-08-12T03:26:50.472Z,3.95
2023-08-12T03:27:13.472Z,4.25
2023-08-12T03:27:36.844Z,4.28
2023-08-12T03:27:59.658Z,4.10
2023-08-12T03:28:22.463Z,4.03
2023-08-12T03:28:48.287Z,4.30
2023-08-12T03:29:11.313Z,4.30
2023-08-12T03:29:34.161Z,4.22
2023-08-12T03:29:57.107Z,3.92
2023-08-12T03:30:22.898Z,4.07
2023-08-12T03:30:52.594Z,4.10
2023-08-12T03:31:15.553Z,3.92
2023-08-12T03:31:38.504Z,4.20
2023-08-12T03:32:01.287Z,4.30
2023-08-12T03:32:26.599Z,4.38
2023-08-12T03:32:53.187Z,4.43
2023-08-12T03:33:15.987Z,4.20
2023-08-12T03:33:38.736Z,4.28
2023-08-12T03:34:02.159Z,4.13
2023-08-12T03:34:24.967Z,4.07
2023-08-12T03:34:47.693Z,3.90
2023-08-12T03:35:10.570Z,3.92
2023-08-12T03:35:36.539Z,4.57
2023-08-12T03:35:59.322Z,4.30
2023-08-12T03:36:22.202Z,3.97
2023-08-12T03:36:49.133Z,3.90
2023-08-12T03:37:12.340Z,4.45
2023-08-12T03:37:35.425Z,4.43
2023-08-12T03:37:58.240Z,4.13
2023-08-12T03:38:21.163Z,4.15
2023-08-12T03:38:43.901Z,3.92
2023-08-12T03:39:09.302Z,3.85
2023-08-12T03:39:32.149Z,4.05
2023-08-12T03:39:54.922Z,4.10
2023-08-12T03:40:17.822Z,4.30
2023-08-12T03:40:40.692Z,4.35
2023-08-12T03:41:03.581Z,4.28
2023-08-12T03:41:26.539Z,4.20
2023-08-12T03:41:51.434Z,3.92
2023-08-12T03:42:16.630Z,4.30
2023-08-12T03:42:39.474Z,4.20
2023-08-12T03:43:02.453Z,4.22
2023-08-12T03:43:25.265Z,4.10
2023-08-12T03:43:48.162Z,3.80
2023-08-12T03:44:10.928Z,4.07
2023-08-12T03:44:33.831Z,4.22
2023-08-12T03:44:57.704Z,4.07
2023-08-12T03:45:20.569Z,4.13
2023-08-12T03:45:46.178Z,4.03
2023-08-12T03:46:09.026Z,4.30
2023-08-12T03:46:31.872Z,4.10
2023-08-12T03:46:54.668Z,4.03
2023-08-12T03:47:23.140Z,3.97
2023-08-12T03:47:46.079Z,4.03
2023-08-12T03:48:08.959Z,4.28
2023-08-12T03:48:31.711Z,3.97
2023-08-12T03:48:54.564Z,4.20
2023-08-12T03:49:18.541Z,3.95
2023-08-12T03:49:43.016Z,3.90
2023-08-12T03:50:07.790Z,3.80
2023-08-12T03:50:30.641Z,4.28
2023-08-12T03:50:53.448Z,3.92
2023-08-12T03:51:16.213Z,3.90
2023-08-12T03:51:41.462Z,4.15
2023-08-12T03:52:04.424Z,3.97
2023-08-12T03:52:27.324Z,4.18
2023-08-12T03:52:50.125Z,4.15
2023-08-12T03:53:13.109Z,4.55
2023-08-12T03:53:36.001Z,4.10
2023-08-12T03:53:59.211Z,3.80
2023-08-12T03:54:23.528Z,3.80
2023-08-12T03:54:46.395Z,4.13
2023-08-12T03:55:10.251Z,4.30
2023-08-12T03:55:33.718Z,4.30
2023-08-12T03:55:56.662Z,4.30
2023-08-12T03:56:19.452Z,4.40
2023-08-12T03:56:42.208Z,4.40
2023-08-12T03:57:05.449Z,3.97
2023-08-12T03:57:28.284Z,4.20
2023-08-12T03:57:51.271Z,4.40
2023-08-12T03:58:14.086Z,4.45
2023-08-12T03:58:37.001Z,4.70
2023-08-12T03:58:59.735Z,4.45
2023-08-12T03:59:22.511Z,4.45
2023-08-12T03:59:45.385Z,4.63
2023-08-12T04:00:09.882Z,4.53
2023-08-12T04:00:32.881Z,4.45
2023-08-12T04:00:55.710Z,4.70
2023-08-12T04:01:18.592Z,4.63
2023-08-12T04:01:42.038Z,5.10
2023-08-12T04:02:08.050Z,4.88
2023-08-12T04:02:30.884Z,4.63
2023-08-12T04:02:53.745Z,4.40
2023-08-12T04:03:17.112Z,4.47
2023-08-12T04:03:40.081Z,4.60
2023-08-12T04:04:02.881Z,4.30
2023-08-12T04:04:25.764Z,4.13
2023-08-12T04:04:48.560Z,4.53
2023-08-12T04:05:11.365Z,4.50
2023-08-12T04:05:34.160Z,4.55
2023-08-12T04:05:56.945Z,4.13
2023-08-12T04:06:19.748Z,4.18
2023-08-12T04:06:42.476Z,4.40
2023-08-12T04:07:05.518Z,4.40
2023-08-12T04:07:28.428Z,4.45
2023-08-12T04:07:51.272Z,4.28
2023-08-12T04:08:14.040Z,4.50
2023-08-12T04:08:36.886Z,4.90
2023-08-12T04:08:59.742Z,4.68
2023-08-12T04:09:24.084Z,4.07
2023-08-12T04:09:46.932Z,4.30
2023-08-12T04:10:11.016Z,4.50
2023-08-12T04:10:33.924Z,4.50
2023-08-12T04:10:56.844Z,4.38
2023-08-12T04:11:19.920Z,4.50
2023-08-12T04:11:43.621Z,4.28
2023-08-12T04:12:07.053Z,4.43
2023-08-12T04:12:29.869Z,4.47
2023-08-12T04:12:52.611Z,4.15
2023-08-12T04:13:15.552Z,4.43
2023-08-12T04:13:40.881Z,4.60
2023-08-12T04:14:03.749Z,4.55
2023-08-12T04:14:26.774Z,4.55
2023-08-12T04:14:49.705Z,4.30
2023-08-12T04:15:12.620Z,4.60
2023-08-12T04:15:35.536Z,4.50
2023-08-12T04:15:58.432Z,4.35
2023-08-12T04:16:21.539Z,4.30
2023-08-12T04:16:44.439Z,4.20
2023-08-12T04:17:07.317Z,4.10
2023-08-12T04:17:30.165Z,4.57
2023-08-12T04:17:53.094Z,4.60
2023-08-12T04:18:16.006Z,4.15
2023-08-12T04:18:38.822Z,3.90
2023-08-12T04:19:01.666Z,4.13
2023-08-12T04:19:24.445Z,4.53
2023-08-12T04:19:47.719Z,4.65
2023-08-12T04:20:13.025Z,4.40
2023-08-12T04:20:36.695Z,4.20
2023-08-12T04:20:59.768Z,4.30
2023-08-12T04:21:22.606Z,4.07
2023-08-12T04:21:48.110Z,3.95
2023-08-12T04:22:11.044Z,3.80
2023-08-12T04:22:35.426Z,3.90
2023-08-12T04:22:58.305Z,4.20
2023-08-12T04:23:21.161Z,4.15
2023-08-12T04:23:43.937Z,3.92
2023-08-12T04:24:07.759Z,4.00
2023-08-12T04:24:32.115Z,3.83
2023-08-12T04:24:54.967Z,3.60
2023-08-12T04:25:19.114Z,3.90
2023-08-12T04:25:45.273Z,3.83
2023-08-12T04:26:08.077Z,3.90
2023-08-12T04:26:31.011Z,3.95
2023-08-12T04:26:53.738Z,4.07
2023-08-12T04:27:17.521Z,3.70
2023-08-12T04:27:40.291Z,3.70
2023-08-12T04:28:05.481Z,3.70
2023-08-12T04:28:28.348Z,3.83
2023-08-12T04:28:51.149Z,4.00
2023-08-12T04:29:13.875Z,3.80
2023-08-12T04:29:39.412Z,3.63
2023-08-12T04:30:02.271Z,3.60
2023-08-12T04:30:25.226Z,3.65
2023-08-12T04:30:48.676Z,4.00
2023-08-12T04:31:11.634Z,3.83
2023-08-12T04:31:35.471Z,3.60
2023-08-12T04:31:58.255Z,3.50
2023-08-12T04:32:21.030Z,3.75
2023-08-12T04:32:43.790Z,3.63
2023-08-12T04:33:06.626Z,3.67
2023-08-12T04:33:29.471Z,3.75
2023-08-12T04:33:54.151Z,3.78
2023-08-12T04:34:16.885Z,3.53
2023-08-12T04:34:39.707Z,3.38
2023-08-12T04:35:02.533Z,3.70
2023-08-12T04:35:25.498Z,3.75
2023-08-12T04:35:48.283Z,3.70
2023-08-12T04:36:11.021Z,3.72
2023-08-12T04:36:33.947Z,3.97
2023-08-12T04:36:56.726Z,3.97
2023-08-12T04:37:19.729Z,3.42
2023-08-12T04:37:42.928Z,3.40
2023-08-12T04:38:05.797Z,3.90
2023-08-12T04:38:28.697Z,3.92
2023-08-12T04:38:51.658Z,3.65
2023-08-12T04:39:14.454Z,3.83
2023-08-12T04:39:38.675Z,3.60
2023-08-12T04:40:01.860Z,3.20
2023-08-12T04:40:24.801Z,3.60
2023-08-12T04:40:48.348Z,3.42
2023-08-12T04:41:11.339Z,3.50
2023-08-12T04:41:34.623Z,3.40
2023-08-12T04:41:57.329Z,3.80
2023-08-12T04:42:20.195Z,3.35
2023-08-12T04:42:43.808Z,3.33
2023-08-12T04:43:06.704Z,3.50
2023-08-12T04:43:29.486Z,3.90
2023-08-12T04:43:52.562Z,3.20
2023-08-12T04:44:15.407Z,3.20
2023-08-12T04:44:38.354Z,3.40
2023-08-12T04:45:01.131Z,3.53
2023-08-12T04:45:24.159Z,3.38
2023-08-12T04:45:48.174Z,3.35
2023-08-12T04:46:11.092Z,3.67
2023-08-12T04:46:34.242Z,3.42
2023-08-12T04:46:57.114Z,3.40
2023-08-12T04:47:22.464Z,3.58
2023-08-12T04:47:45.303Z,3.53
2023-08-12T04:48:10.067Z,3.75
2023-08-12T04:48:32.908Z,3.15
2023-08-12T04:48:55.716Z,3.38
2023-08-12T04:49:18.692Z,3.40
2023-08-12T04:49:41.614Z,3.65
2023-08-12T04:50:05.291Z,3.65
2023-08-12T04:50:30.662Z,3.60
2023-08-12T04:50:53.627Z,3.42
2023-08-12T04:51:16.436Z,3.35
2023-08-12T04:51:39.812Z,3.50
2023-08-12T04:52:05.914Z,3.40
2023-08-12T04:52:28.743Z,3.30
2023-08-12T04:52:51.513Z,3.35
2023-08-12T04:53:14.397Z,3.67
2023-08-12T04:53:37.472Z,3.45
2023-08-12T04:54:02.716Z,3.45
2023-08-12T04:54:25.676Z,3.67
2023-08-12T04:54:49.933Z,3.50
2023-08-12T04:55:13.239Z,3.47
2023-08-12T04:55:36.380Z,3.67
2023-08-12T04:55:59.252Z,3.97
2023-08-12T04:56:22.027Z,3.92
2023-08-12T04:56:44.864Z,4.00
2023-08-12T04:57:07.829Z,4.30
2023-08-12T04:57:30.793Z,3.88
2023-08-12T04:57:54.791Z,3.70
2023-08-12T04:58:17.531Z,3.42
2023-08-12T04:58:40.279Z,3.47
2023-08-12T04:59:03.185Z,3.42
2023-08-12T04:59:26.162Z,3.80
2023-08-12T04:59:49.073Z,3.40
2023-08-12T05:00:13.583Z,3.13
2023-08-12T05:00:37.000Z,3.50
2023-08-12T05:00:59.738Z,3.78
2023-08-12T05:01:23.147Z,3.65
2023-08-12T05:02:02.427Z,3.35
2023-08-12T05:02:29.052Z,3.30
2023-08-12T05:02:52.213Z,3.58
2023-08-12T05:03:15.164Z,3.53
2023-08-12T05:03:38.891Z,3.60
2023-08-12T05:04:01.773Z,3.50
2023-08-12T05:04:25.550Z,3.53
2023-08-12T05:04:50.223Z,3.58
2023-08-12T05:05:13.159Z,3.53
2023-08-12T05:05:37.418Z,3.78
2023-08-12T05:06:00.211Z,3.90
2023-08-12T05:06:24.290Z,3.45
2023-08-12T05:06:47.157Z,3.50
2023-08-12T05:07:10.031Z,3.60
2023-08-12T05:07:35.047Z,3.55
2023-08-12T05:07:57.863Z,3.60
2023-08-12T05:08:20.692Z,3.60
2023-08-12T05:08:46.563Z,3.60
2023-08-12T05:09:10.370Z,3.60
2023-08-12T05:09:33.245Z,3.78
2023-08-12T05:09:57.483Z,3.60
2023-08-12T05:10:20.370Z,3.70
2023-08-12T05:10:46.296Z,3.50
2023-08-12T05:11:09.078Z,3.50
2023-08-12T05:11:31.979Z,3.42
2023-08-12T05:11:54.776Z,3.30
2023-08-12T05:12:17.596Z,3.50
2023-08-12T05:12:40.560Z,3.75